Time;durP1;ratioP1;P1;durP2;ratioP2;P2;SDS_P1;SDS_P2;PMS_P1;PMS_P2;Temp;Humidity;BMP_temperature;BMP_pressure;BME280_temperature;BME280_humidity;BME280_pressure;Samples;Min_cycle;Max_cycle;Signal;HPM_P1;HPM_P2
2024/01/12 00:00:26;;;;;;;30.95;15.45;;;1.00;99.90;;;;;;5086412;28;20455;-71
2024/01/12 00:02:51;;;;;;;37.10;16.13;;;1.00;99.90;;;;;;5086652;28;20772;-71
2024/01/12 00:05:17;;;;;;;37.40;16.80;;;1.00;99.90;;;;;;5069833;28;20445;-72
2024/01/12 00:07:44;;;;;;;38.38;18.35;;;1.00;99.90;;;;;;5085941;28;20402;-72
2024/01/12 00:10:09;;;;;;;31.23;14.65;;;1.00;99.90;;;;;;5087719;28;20472;-72
2024/01/12 00:12:35;;;;;;;27.75;13.60;;;1.00;99.90;;;;;;5086485;28;20456;-72
2024/01/12 00:15:02;;;;;;;24.77;12.63;;;1.00;99.90;;;;;;5068760;28;20409;-72
2024/01/12 00:17:28;;;;;;;36.25;15.45;;;1.10;99.90;;;;;;5086208;28;20764;-72
2024/01/12 00:19:54;;;;;;;30.48;15.15;;;1.10;99.90;;;;;;5087555;28;20406;-72
2024/01/12 00:22:20;;;;;;;32.47;15.15;;;1.10;99.90;;;;;;5087694;28;20459;-72
2024/01/12 00:24:46;;;;;;;33.43;15.23;;;1.10;99.90;;;;;;5086203;28;20417;-72
2024/01/12 00:27:11;;;;;;;28.90;14.07;;;1.10;99.90;;;;;;5082450;28;20933;-72
2024/01/12 00:29:37;;;;;;;34.00;14.67;;;1.10;99.90;;;;;;5078676;28;20434;-72
2024/01/12 00:32:05;;;;;;;29.08;14.07;;;1.10;99.90;;;;;;5088775;28;20424;-72
2024/01/12 00:34:30;;;;;;;29.13;14.35;;;1.20;99.90;;;;;;5102559;28;20812;-72
2024/01/12 00:36:56;;;;;;;33.50;13.63;;;1.20;99.90;;;;;;5109590;28;20400;-72
2024/01/12 00:39:22;;;;;;;26.97;13.57;;;1.30;99.90;;;;;;5110667;28;20770;-72
2024/01/12 00:41:50;;;;;;;27.42;12.88;;;1.30;99.90;;;;;;5108288;28;20408;-72
2024/01/12 00:44:19;;;;;;;26.38;12.60;;;1.30;99.90;;;;;;5110676;27;20419;-73
2024/01/12 00:46:50;;;;;;;26.52;12.13;;;1.40;99.90;;;;;;5109697;28;20435;-72
2024/01/12 00:49:19;;;;;;;28.80;12.82;;;1.40;99.90;;;;;;5110783;28;20420;-72
2024/01/12 00:51:45;;;;;;;26.15;12.85;;;1.40;99.90;;;;;;5107927;28;20404;-72
2024/01/12 00:54:11;;;;;;;29.83;12.95;;;1.40;99.90;;;;;;5108415;28;20396;-72
2024/01/12 00:56:37;;;;;;;32.25;12.73;;;1.50;99.90;;;;;;5108305;28;20442;-72
2024/01/12 00:59:03;;;;;;;29.13;13.52;;;1.50;99.90;;;;;;5107902;28;20453;-72
2024/01/12 01:01:29;;;;;;;23.80;12.38;;;1.50;99.90;;;;;;5106723;28;20400;-72
2024/01/12 01:03:55;;;;;;;29.02;13.30;;;1.50;99.90;;;;;;5107659;28;20408;-73
2024/01/12 01:06:21;;;;;;;29.35;13.60;;;1.50;99.90;;;;;;5101570;28;20409;-72
2024/01/12 01:08:48;;;;;;;29.55;12.18;;;1.50;99.90;;;;;;5101573;28;20502;-72
2024/01/12 01:11:17;;;;;;;23.17;12.68;;;1.50;99.90;;;;;;5106880;28;20519;-72
2024/01/12 01:13:42;;;;;;;26.13;12.50;;;1.50;99.90;;;;;;5107046;28;20495;-72
2024/01/12 01:16:09;;;;;;;25.60;12.00;;;1.50;99.90;;;;;;5100463;28;20493;-72
2024/01/12 01:18:34;;;;;;;22.67;11.25;;;1.60;99.90;;;;;;5101786;28;20912;-72
2024/01/12 01:21:00;;;;;;;21.13;11.50;;;1.60;99.90;;;;;;5094465;28;20404;-72
2024/01/12 01:23:25;;;;;;;21.50;11.07;;;1.70;99.90;;;;;;5094122;28;20456;-73
2024/01/12 01:25:51;;;;;;;24.27;11.03;;;1.70;99.90;;;;;;5106927;28;20400;-72
2024/01/12 01:28:17;;;;;;;24.73;11.55;;;1.80;99.90;;;;;;5081997;28;20727;-73
2024/01/12 01:30:44;;;;;;;21.85;10.75;;;1.80;99.90;;;;;;5090386;28;20418;-72
2024/01/12 01:33:09;;;;;;;26.80;10.27;;;1.80;99.90;;;;;;5103088;28;20429;-72
2024/01/12 01:35:35;;;;;;;19.80;10.30;;;1.80;99.90;;;;;;5108858;28;20399;-72
2024/01/12 01:38:00;;;;;;;24.77;10.57;;;1.80;99.90;;;;;;5108513;28;20495;-73
2024/01/12 01:40:26;;;;;;;24.70;10.85;;;1.80;99.90;;;;;;5108734;28;20411;-72
2024/01/12 01:42:52;;;;;;;21.10;10.33;;;1.80;99.90;;;;;;5109782;28;20408;-72
2024/01/12 01:45:17;;;;;;;23.23;10.63;;;1.80;99.90;;;;;;5107370;28;20404;-73
2024/01/12 01:47:44;;;;;;;23.15;10.77;;;1.80;99.90;;;;;;5109069;28;20447;-72
2024/01/12 01:50:12;;;;;;;19.55;10.27;;;1.80;99.90;;;;;;5106941;28;20431;-72
2024/01/12 01:52:38;;;;;;;19.77;9.95;;;1.80;99.90;;;;;;5109004;28;20396;-72
2024/01/12 01:55:04;;;;;;;18.02;9.68;;;1.80;99.90;;;;;;5108197;28;20902;-72
2024/01/12 01:57:31;;;;;;;20.45;9.43;;;1.80;99.90;;;;;;5108204;28;20412;-72
2024/01/12 01:59:57;;;;;;;21.30;9.98;;;1.80;99.90;;;;;;5106495;28;20412;-72
2024/01/12 02:02:23;;;;;;;24.75;10.90;;;1.80;99.90;;;;;;5107738;28;20746;-72
2024/01/12 02:04:51;;;;;;;22.70;10.27;;;1.80;99.90;;;;;;5094658;28;20444;-72
2024/01/12 02:07:17;;;;;;;21.88;10.43;;;1.80;99.90;;;;;;5107311;28;20400;-73
2024/01/12 02:09:43;;;;;;;21.47;9.83;;;1.80;99.90;;;;;;5087997;28;20437;-73
2024/01/12 02:12:09;;;;;;;21.73;10.10;;;1.80;99.90;;;;;;5083318;28;20430;-73
2024/01/12 02:14:34;;;;;;;27.53;10.60;;;1.80;99.90;;;;;;5083898;28;20401;-72
2024/01/12 02:17:00;;;;;;;20.58;9.48;;;1.80;99.90;;;;;;5106494;28;20388;-72
2024/01/12 02:19:26;;;;;;;23.27;9.90;;;1.70;99.90;;;;;;5106789;28;20412;-72
2024/01/12 02:21:51;;;;;;;19.33;10.20;;;1.70;99.90;;;;;;5106954;28;20403;-72
2024/01/12 02:24:17;;;;;;;19.98;9.48;;;1.70;99.90;;;;;;5089247;28;20459;-72
2024/01/12 02:26:42;;;;;;;19.90;9.05;;;1.70;99.90;;;;;;5081114;28;20418;-72
2024/01/12 02:29:08;;;;;;;24.47;9.53;;;1.70;99.90;;;;;;5083484;28;20950;-72
2024/01/12 02:31:34;;;;;;;20.38;9.02;;;1.60;99.90;;;;;;5089732;28;20421;-72
2024/01/12 02:33:59;;;;;;;20.02;9.05;;;1.60;99.90;;;;;;5104039;28;20410;-72
2024/01/12 02:36:26;;;;;;;24.27;9.73;;;1.50;99.90;;;;;;5092651;28;20407;-72
2024/01/12 02:38:52;;;;;;;24.83;10.07;;;1.50;99.90;;;;;;5103963;28;20453;-72
2024/01/12 02:41:18;;;;;;;21.67;9.20;;;1.50;99.90;;;;;;5098955;28;20502;-72
2024/01/12 02:43:44;;;;;;;19.63;9.05;;;1.50;99.90;;;;;;5088274;28;20492;-73
2024/01/12 02:46:10;;;;;;;23.23;9.43;;;1.50;99.90;;;;;;5099748;28;20408;-72
2024/01/12 02:48:36;;;;;;;20.47;9.30;;;1.50;99.90;;;;;;5097919;28;20477;-72
2024/01/12 02:51:01;;;;;;;25.37;9.13;;;1.50;99.90;;;;;;5099550;28;20406;-72
2024/01/12 02:53:27;;;;;;;20.80;8.88;;;1.50;99.90;;;;;;5105655;28;20411;-73
2024/01/12 02:55:52;;;;;;;19.75;9.23;;;1.60;99.90;;;;;;5101091;28;20406;-73
2024/01/12 02:58:18;;;;;;;18.80;9.17;;;1.60;99.90;;;;;;5096516;28;20444;-72
2024/01/12 03:00:44;;;;;;;20.83;9.35;;;1.60;99.90;;;;;;5094461;28;20406;-73
2024/01/12 03:03:09;;;;;;;26.23;10.27;;;1.60;99.90;;;;;;5098311;28;20480;-73
2024/01/12 03:05:35;;;;;;;19.07;8.83;;;1.70;99.90;;;;;;5105442;28;20392;-72
2024/01/12 03:08:01;;;;;;;20.37;9.13;;;1.70;99.90;;;;;;5100460;28;20420;-73
2024/01/12 03:10:26;;;;;;;23.13;9.33;;;1.70;99.90;;;;;;5105590;28;20462;-73
2024/01/12 03:12:52;;;;;;;22.15;10.07;;;1.70;99.90;;;;;;5091696;28;20413;-72
2024/01/12 03:15:18;;;;;;;23.73;9.80;;;1.80;99.90;;;;;;5104235;28;20473;-73
2024/01/12 03:17:43;;;;;;;22.03;9.30;;;1.80;99.90;;;;;;5101393;28;20463;-73
2024/01/12 03:20:09;;;;;;;25.42;9.45;;;1.80;99.90;;;;;;5103378;28;20459;-73
2024/01/12 03:22:36;;;;;;;27.05;10.90;;;1.90;99.90;;;;;;5099240;28;20499;-73
2024/01/12 03:25:02;;;;;;;26.97;10.63;;;1.90;99.90;;;;;;5104925;28;20823;-73
2024/01/12 03:27:28;;;;;;;25.30;10.23;;;2.00;99.90;;;;;;5091131;28;20418;-73
2024/01/12 03:29:54;;;;;;;22.17;10.23;;;2.00;99.90;;;;;;5104184;28;20428;-73
2024/01/12 03:32:20;;;;;;;24.13;10.47;;;2.10;99.90;;;;;;5100181;28;20402;-73
2024/01/12 03:34:46;;;;;;;22.55;10.15;;;2.00;99.90;;;;;;5096330;28;20463;-73
2024/01/12 03:37:12;;;;;;;23.75;10.10;;;2.00;99.90;;;;;;5087395;28;20410;-73
2024/01/12 03:39:37;;;;;;;20.50;9.85;;;2.00;99.90;;;;;;5094082;28;20829;-73
2024/01/12 03:42:03;;;;;;;22.13;9.97;;;2.00;99.90;;;;;;5100852;28;20402;-73
2024/01/12 03:44:29;;;;;;;19.37;9.00;;;1.90;99.90;;;;;;5104259;28;20453;-73
2024/01/12 03:46:54;;;;;;;26.33;10.43;;;1.90;99.90;;;;;;5100848;28;20523;-73
2024/01/12 03:49:21;;;;;;;20.33;9.32;;;1.90;99.90;;;;;;5103830;28;20463;-73
2024/01/12 03:51:53;;;;;;;25.83;10.18;;;1.90;99.90;;;;;;5100208;28;20459;-73
2024/01/12 03:54:22;;;;;;;25.33;10.15;;;1.90;99.90;;;;;;5095601;28;20404;-73
2024/01/12 03:56:48;;;;;;;24.55;10.20;;;1.90;99.90;;;;;;5100509;28;20441;-73
2024/01/12 03:59:13;;;;;;;28.30;9.73;;;1.90;99.90;;;;;;5102905;28;20455;-73
2024/01/12 04:01:42;;;;;;;25.67;9.80;;;1.80;99.90;;;;;;5100059;28;20986;-73
2024/01/12 04:04:08;;;;;;;22.67;9.80;;;1.80;99.90;;;;;;5103819;28;20461;-73
2024/01/12 04:06:34;;;;;;;21.97;9.93;;;1.80;99.90;;;;;;5100718;28;20402;-73
2024/01/12 04:08:59;;;;;;;29.35;11.13;;;1.80;99.90;;;;;;5108191;28;20815;-73
2024/01/12 04:11:26;;;;;;;27.27;11.00;;;1.80;99.90;;;;;;5104095;28;20425;-73
2024/01/12 04:13:51;;;;;;;24.58;10.10;;;1.80;99.90;;;;;;5108666;28;20396;-73
2024/01/12 04:16:18;;;;;;;26.05;10.40;;;1.80;99.90;;;;;;5105259;28;20398;-73
2024/01/12 04:18:43;;;;;;;22.20;10.30;;;1.80;99.90;;;;;;5100025;28;20406;-73
2024/01/12 04:21:09;;;;;;;29.60;11.30;;;1.80;99.90;;;;;;5103033;28;20485;-73
2024/01/12 04:23:35;;;;;;;25.83;10.50;;;1.80;99.90;;;;;;5107746;28;20738;-73
2024/01/12 04:26:01;;;;;;;28.08;11.13;;;1.80;99.90;;;;;;5103444;28;20429;-73
2024/01/12 04:28:26;;;;;;;24.23;10.37;;;1.80;99.90;;;;;;5107509;28;20457;-73
2024/01/12 04:30:52;;;;;;;26.80;10.50;;;1.80;99.90;;;;;;5103811;28;20792;-73
2024/01/12 04:33:17;;;;;;;20.97;10.50;;;1.70;99.90;;;;;;5106382;28;20498;-73
2024/01/12 04:35:43;;;;;;;27.47;11.13;;;1.70;99.90;;;;;;5093380;28;20473;-73
2024/01/12 04:38:09;;;;;;;27.80;11.07;;;1.70;99.90;;;;;;5106838;28;20882;-73
2024/01/12 04:40:35;;;;;;;28.23;10.77;;;1.70;99.90;;;;;;5104329;28;20402;-73
2024/01/12 04:43:03;;;;;;;30.30;11.53;;;1.70;99.90;;;;;;5106258;28;20831;-73
2024/01/12 04:45:28;;;;;;;32.53;11.73;;;1.70;99.90;;;;;;5103860;28;20398;-73
2024/01/12 04:47:54;;;;;;;30.27;11.68;;;1.70;99.90;;;;;;5107174;28;20520;-73
2024/01/12 04:50:20;;;;;;;28.80;11.23;;;1.60;99.90;;;;;;5102419;28;20824;-73
2024/01/12 04:52:45;;;;;;;27.65;11.57;;;1.60;99.90;;;;;;5106792;28;20465;-73
2024/01/12 04:55:11;;;;;;;33.88;11.95;;;1.60;99.90;;;;;;5101566;28;20389;-73
2024/01/12 04:57:37;;;;;;;34.00;11.13;;;1.50;99.90;;;;;;5106904;28;20400;-73
2024/01/12 05:00:03;;;;;;;33.27;12.03;;;1.50;99.90;;;;;;5100959;28;20440;-73
2024/01/12 05:02:31;;;;;;;34.17;12.23;;;1.50;99.90;;;;;;5105264;28;20411;-74
2024/01/12 05:04:57;;;;;;;28.98;11.98;;;1.50;99.90;;;;;;5091174;28;20398;-74
2024/01/12 05:07:22;;;;;;;30.50;11.77;;;1.40;99.90;;;;;;5104218;28;20762;-73
2024/01/12 05:09:48;;;;;;;34.73;12.40;;;1.40;99.90;;;;;;5097490;28;20426;-73
2024/01/12 05:12:14;;;;;;;33.80;12.30;;;1.50;99.90;;;;;;5086199;28;20407;-73
2024/01/12 05:14:40;;;;;;;39.25;12.48;;;1.40;99.90;;;;;;5097643;28;20405;-73
2024/01/12 05:17:05;;;;;;;35.83;12.45;;;1.40;99.90;;;;;;5102187;28;20806;-73
2024/01/12 05:19:31;;;;;;;39.90;12.77;;;1.30;99.90;;;;;;5097324;28;20417;-74
2024/01/12 05:21:57;;;;;;;38.53;12.60;;;1.30;99.90;;;;;;5094731;28;20484;-73
2024/01/12 05:24:22;;;;;;;41.08;15.15;;;1.20;99.90;;;;;;5098581;28;20409;-73
2024/01/12 05:26:48;;;;;;;50.30;17.75;;;1.20;99.90;;;;;;5103710;28;20403;-73
2024/01/12 05:29:14;;;;;;;56.33;19.63;;;1.10;99.90;;;;;;5097156;28;20424;-73
2024/01/12 05:31:45;;;;;;;82.00;41.10;;;1.00;99.90;;;;;;5102490;28;20428;-73
2024/01/12 05:34:11;;;;;;;45.83;18.38;;;0.90;99.90;;;;;;5096813;28;20908;-73
2024/01/12 05:36:37;;;;;;;54.45;15.18;;;0.90;99.90;;;;;;5095316;28;20410;-73
2024/01/12 05:39:03;;;;;;;42.57;14.50;;;0.90;99.90;;;;;;5099732;28;20394;-73
2024/01/12 05:41:30;;;;;;;38.85;13.60;;;0.90;99.90;;;;;;5105792;28;20923;-73
2024/01/12 05:43:56;;;;;;;43.50;13.52;;;0.90;99.90;;;;;;5101255;28;20406;-73
2024/01/12 05:46:22;;;;;;;42.53;13.75;;;0.90;99.90;;;;;;5096768;28;20468;-73
2024/01/12 05:48:48;;;;;;;75.97;18.08;;;0.90;99.90;;;;;;5099515;28;20927;-73
2024/01/12 05:51:15;;;;;;;59.80;15.02;;;0.80;99.90;;;;;;5104503;28;20412;-73
2024/01/12 05:53:41;;;;;;;73.18;17.98;;;0.80;99.90;;;;;;5099361;28;20484;-73
2024/01/12 05:56:06;;;;;;;66.40;17.73;;;0.70;99.90;;;;;;5095408;28;20501;-73
2024/01/12 05:58:32;;;;;;;51.60;15.73;;;0.70;99.90;;;;;;5036230;28;1765304;-73
2024/01/12 06:00:58;;;;;;;49.03;15.50;;;0.60;99.90;;;;;;5104532;28;20457;-73
2024/01/12 06:03:27;;;;;;;55.33;16.40;;;0.60;99.90;;;;;;5100842;28;20422;-73
2024/01/12 06:05:54;;;;;;;68.20;17.88;;;0.70;99.90;;;;;;5104256;28;20408;-73
2024/01/12 06:08:19;;;;;;;55.10;15.40;;;0.70;99.90;;;;;;5101327;28;21370;-74
2024/01/12 06:10:45;;;;;;;46.67;14.73;;;0.70;99.90;;;;;;5105211;28;20435;-73
2024/01/12 06:13:10;;;;;;;53.80;16.10;;;0.80;99.90;;;;;;5101367;28;20469;-73
2024/01/12 06:15:37;;;;;;;58.80;16.03;;;0.80;99.90;;;;;;5105623;28;20407;-73
2024/01/12 06:18:02;;;;;;;48.15;14.20;;;0.80;99.90;;;;;;5099367;28;20398;-73
2024/01/12 06:20:28;;;;;;;51.30;15.35;;;0.90;99.90;;;;;;5105318;28;20411;-73
2024/01/12 06:22:54;;;;;;;40.80;13.30;;;0.90;99.90;;;;;;5099517;28;20401;-73
2024/01/12 06:25:19;;;;;;;46.93;14.20;;;0.90;99.90;;;;;;5104481;28;20421;-74
2024/01/12 06:27:45;;;;;;;35.53;12.93;;;0.90;99.90;;;;;;5099352;28;20476;-73
2024/01/12 06:30:11;;;;;;;42.27;13.67;;;1.00;99.90;;;;;;5102924;28;20428;-74
2024/01/12 06:32:40;;;;;;;48.20;14.02;;;1.00;99.90;;;;;;5099052;28;20402;-73
2024/01/12 06:35:10;;;;;;;34.53;12.68;;;1.10;99.90;;;;;;5096027;28;20455;-73
2024/01/12 06:37:36;;;;;;;57.35;16.45;;;1.10;99.90;;;;;;5091132;28;20941;-73
2024/01/12 06:40:01;;;;;;;45.43;13.60;;;1.10;99.90;;;;;;5092030;28;20491;-73
2024/01/12 06:42:28;;;;;;;46.13;13.53;;;1.10;99.90;;;;;;5091991;28;20420;-73
2024/01/12 06:44:54;;;;;;;39.80;11.55;;;1.20;99.90;;;;;;5105037;28;20443;-74
2024/01/12 06:47:20;;;;;;;35.70;10.68;;;1.20;99.90;;;;;;5101540;28;20400;-73
2024/01/12 06:49:46;;;;;;;40.85;11.02;;;1.20;99.90;;;;;;5105476;28;20451;-73
2024/01/12 06:52:12;;;;;;;40.42;11.15;;;1.30;99.90;;;;;;5101154;28;20415;-73
2024/01/12 06:54:42;;;;;;;40.03;10.95;;;1.40;99.90;;;;;;5095456;28;20418;-73
2024/01/12 06:57:08;;;;;;;37.63;10.82;;;1.40;99.90;;;;;;5098697;28;20449;-74
2024/01/12 06:59:34;;;;;;;34.20;9.33;;;1.50;99.90;;;;;;5104521;28;20408;-74
2024/01/12 07:01:59;;;;;;;35.47;8.70;;;1.50;99.90;;;;;;5101977;28;20440;-74
2024/01/12 07:04:25;;;;;;;35.13;8.25;;;1.50;99.90;;;;;;5103498;28;20483;-74
2024/01/12 07:06:52;;;;;;;31.33;7.83;;;1.60;99.90;;;;;;5101244;28;20461;-74
2024/01/12 07:09:18;;;;;;;34.70;7.07;;;1.70;99.90;;;;;;5103482;28;20428;-74
2024/01/12 07:11:44;;;;;;;31.08;7.30;;;1.80;99.90;;;;;;5102382;28;20837;-74
2024/01/12 07:14:10;;;;;;;30.33;6.15;;;1.80;99.90;;;;;;5102705;28;20405;-74
2024/01/12 07:16:39;;;;;;;24.65;6.05;;;1.90;99.90;;;;;;5100158;28;20404;-74
2024/01/12 07:19:05;;;;;;;25.38;6.32;;;1.90;99.90;;;;;;5102552;28;20909;-74
2024/01/12 07:21:30;;;;;;;30.13;5.68;;;1.90;99.90;;;;;;5101013;28;20392;-74
2024/01/12 07:23:56;;;;;;;26.70;5.20;;;1.90;99.90;;;;;;5098029;28;20916;-74
2024/01/12 07:26:22;;;;;;;25.87;4.73;;;2.00;99.90;;;;;;5100052;28;20404;-74
2024/01/12 07:28:47;;;;;;;25.63;4.83;;;2.00;99.90;;;;;;5102240;28;20403;-74
2024/01/12 07:31:13;;;;;;;23.50;5.00;;;2.00;99.90;;;;;;5098943;28;20808;-75
2024/01/12 07:33:38;;;;;;;30.00;5.37;;;1.90;99.90;;;;;;5096304;28;20395;-74
2024/01/12 07:36:04;;;;;;;33.78;5.80;;;2.00;99.90;;;;;;5088530;28;20787;-75
2024/01/12 07:38:30;;;;;;;29.63;4.72;;;1.90;99.90;;;;;;5104736;28;20545;-75
2024/01/12 07:40:55;;;;;;;25.50;5.13;;;1.90;99.90;;;;;;5100201;28;20409;-75
2024/01/12 07:43:21;;;;;;;23.57;5.40;;;1.90;99.90;;;;;;5104346;28;20514;-75
2024/01/12 07:45:47;;;;;;;23.90;4.70;;;1.90;99.90;;;;;;5101407;28;20400;-75
2024/01/12 07:48:12;;;;;;;29.88;5.03;;;1.90;99.90;;;;;;5103489;28;20812;-75
2024/01/12 07:50:38;;;;;;;31.57;5.20;;;2.00;99.90;;;;;;5101076;28;20421;-75
2024/01/12 07:53:04;;;;;;;24.08;4.57;;;2.00;99.90;;;;;;5103703;28;20451;-75
2024/01/12 07:55:30;;;;;;;20.45;3.67;;;2.00;99.90;;;;;;5100019;28;20469;-75
2024/01/12 07:57:55;;;;;;;21.08;4.45;;;2.00;99.90;;;;;;5104405;28;20404;-75
2024/01/12 08:00:21;;;;;;;29.23;3.97;;;2.00;99.90;;;;;;5100666;28;20403;-75
2024/01/12 08:02:47;;;;;;;20.83;3.97;;;2.00;99.90;;;;;;5104480;28;20491;-75
2024/01/12 08:05:13;;;;;;;21.70;3.80;;;2.10;99.90;;;;;;5101345;28;20496;-75
2024/01/12 08:07:39;;;;;;;23.13;3.70;;;2.10;99.90;;;;;;5102773;28;20402;-75
2024/01/12 08:10:05;;;;;;;25.23;3.72;;;2.10;99.90;;;;;;5101009;28;20432;-75
2024/01/12 08:12:31;;;;;;;22.73;4.30;;;2.20;99.90;;;;;;5104120;28;20397;-75
2024/01/12 08:14:56;;;;;;;25.67;4.50;;;2.20;99.90;;;;;;5101588;28;20408;-75
2024/01/12 08:17:22;;;;;;;21.92;3.70;;;2.20;99.90;;;;;;5104035;28;20480;-75
2024/01/12 08:19:48;;;;;;;19.27;3.53;;;2.20;99.90;;;;;;5101664;28;20457;-75
2024/01/12 08:22:14;;;;;;;20.97;3.57;;;2.30;99.90;;;;;;5104062;28;20396;-75
2024/01/12 08:24:40;;;;;;;18.75;3.10;;;2.20;99.90;;;;;;5101748;28;20804;-75
2024/01/12 08:27:06;;;;;;;19.80;2.35;;;2.30;99.90;;;;;;5091297;28;20418;-75
2024/01/12 08:29:31;;;;;;;18.37;2.90;;;2.30;99.90;;;;;;5101533;28;20460;-75
2024/01/12 08:31:58;;;;;;;23.37;3.17;;;2.30;99.90;;;;;;5103546;28;20458;-75
2024/01/12 08:34:25;;;;;;;23.20;3.08;;;2.30;99.90;;;;;;5098144;28;20475;-75
2024/01/12 08:36:51;;;;;;;18.40;3.15;;;2.40;99.90;;;;;;5097031;28;20762;-75
2024/01/12 08:39:17;;;;;;;22.00;3.97;;;2.40;99.90;;;;;;5100984;28;20404;-75
2024/01/12 08:41:43;;;;;;;23.63;3.63;;;2.50;99.90;;;;;;5103682;28;20492;-75
2024/01/12 08:44:11;;;;;;;22.75;3.53;;;2.50;99.90;;;;;;5097540;28;20481;-75
2024/01/12 08:46:37;;;;;;;23.17;3.85;;;2.50;99.90;;;;;;5097474;28;20397;-75
2024/01/12 08:49:02;;;;;;;20.73;3.17;;;2.60;99.90;;;;;;5100698;28;20424;-76
2024/01/12 08:51:28;;;;;;;21.02;3.15;;;2.60;99.90;;;;;;5104045;28;20483;-76
2024/01/12 08:53:54;;;;;;;21.58;3.65;;;2.60;99.90;;;;;;5104710;28;20457;-75
2024/01/12 08:56:19;;;;;;;22.43;4.13;;;2.70;99.90;;;;;;5107340;28;20404;-76
2024/01/12 08:58:45;;;;;;;23.73;4.05;;;2.70;99.90;;;;;;5105041;28;20443;-76
2024/01/12 09:01:12;;;;;;;24.90;4.10;;;2.70;99.90;;;;;;5106535;28;20484;-75
2024/01/12 09:03:38;;;;;;;21.38;3.72;;;2.80;99.90;;;;;;5094225;28;20412;-76
2024/01/12 09:06:04;;;;;;;23.52;3.85;;;2.80;99.90;;;;;;5103846;28;20420;-76
2024/01/12 09:08:29;;;;;;;25.90;4.63;;;2.80;99.90;;;;;;5103777;28;20823;-76
2024/01/12 09:10:55;;;;;;;18.73;3.63;;;2.80;99.90;;;;;;5105599;28;20426;-76
2024/01/12 09:13:21;;;;;;;26.70;3.70;;;2.80;99.90;;;;;;5093665;28;20408;-76
2024/01/12 09:15:46;;;;;;;22.52;3.78;;;2.90;99.90;;;;;;5105641;28;20810;-76
2024/01/12 09:18:12;;;;;;;21.97;3.50;;;2.90;99.90;;;;;;5099852;28;20400;-76
2024/01/12 09:20:37;;;;;;;21.07;3.50;;;2.90;99.90;;;;;;5105691;28;20521;-76
2024/01/12 09:23:04;;;;;;;16.90;3.15;;;2.90;99.90;;;;;;5103463;28;20445;-76
2024/01/12 09:25:30;;;;;;;20.98;3.22;;;2.90;99.90;;;;;;5104581;28;20885;-76
2024/01/12 09:27:57;;;;;;;19.17;3.10;;;3.00;99.90;;;;;;5102592;28;20776;-76
2024/01/12 09:30:23;;;;;;;17.70;2.75;;;3.00;99.90;;;;;;5096208;28;20430;-76
2024/01/12 09:32:48;;;;;;;16.87;2.60;;;3.00;99.90;;;;;;5102632;28;20815;-76
2024/01/12 09:35:15;;;;;;;21.20;2.85;;;3.00;99.90;;;;;;5091792;28;20406;-76
2024/01/12 09:37:40;;;;;;;18.13;2.95;;;3.10;99.90;;;;;;5099069;28;20410;-76
2024/01/12 09:40:07;;;;;;;18.27;3.45;;;3.10;99.90;;;;;;5104671;28;20407;-76
2024/01/12 09:42:33;;;;;;;18.95;3.50;;;3.10;99.90;;;;;;5096188;28;20407;-76
2024/01/12 09:45:01;;;;;;;18.55;2.67;;;3.00;99.90;;;;;;5095868;28;20398;-76
2024/01/12 09:47:27;;;;;;;20.83;3.25;;;3.00;99.90;;;;;;5098639;28;20910;-76
2024/01/12 09:49:53;;;;;;;20.83;3.30;;;3.10;99.90;;;;;;5098032;28;20431;-76
2024/01/12 09:52:19;;;;;;;19.55;2.75;;;3.10;99.90;;;;;;5101775;28;20392;-76
2024/01/12 09:54:46;;;;;;;17.33;3.40;;;3.10;99.90;;;;;;5085867;28;20416;-76
2024/01/12 09:57:12;;;;;;;18.05;3.20;;;3.10;99.90;;;;;;5101748;28;20457;-76
2024/01/12 09:59:39;;;;;;;21.58;3.13;;;3.10;99.90;;;;;;5104359;28;20783;-77
2024/01/12 10:02:11;;;;;;;24.73;4.13;;;3.20;99.90;;;;;;5101812;28;20409;-77
2024/01/12 10:04:36;;;;;;;19.02;3.10;;;3.30;99.90;;;;;;5101364;28;20976;-77
2024/01/12 10:07:02;;;;;;;23.70;3.50;;;3.30;99.90;;;;;;5100936;28;20404;-77
2024/01/12 10:09:28;;;;;;;23.83;3.80;;;3.40;99.90;;;;;;5102240;28;20419;-77
2024/01/12 10:11:54;;;;;;;22.48;3.53;;;3.40;99.90;;;;;;5103176;28;20404;-77
2024/01/12 10:14:25;;;;;;;22.03;3.23;;;3.50;99.90;;;;;;5102250;28;20972;-77
2024/01/12 10:16:58;;;;;;;24.90;3.60;;;3.50;99.90;;;;;;5098330;28;20761;-77
2024/01/12 10:19:24;;;;;;;25.60;3.20;;;3.50;99.90;;;;;;5097812;28;20497;-77
2024/01/12 10:21:51;;;;;;;20.38;3.17;;;3.50;99.90;;;;;;5104404;28;20397;-77
2024/01/12 10:24:19;;;;;;;24.37;3.47;;;3.50;99.90;;;;;;5100269;28;20405;-77
2024/01/12 10:26:49;;;;;;;19.88;3.50;;;3.50;99.90;;;;;;5103275;28;20914;-77
2024/01/12 10:29:16;;;;;;;24.05;3.70;;;3.50;99.90;;;;;;5098539;28;20441;-77
2024/01/12 10:31:43;;;;;;;19.90;2.55;;;3.50;99.90;;;;;;5105150;28;20499;-77
2024/01/12 10:34:13;;;;;;;22.60;3.33;;;3.50;99.90;;;;;;5096588;28;20770;-77
2024/01/12 10:36:39;;;;;;;17.35;2.85;;;3.50;99.90;;;;;;5094790;28;20940;-77
2024/01/12 10:39:10;;;;;;;22.67;3.03;;;3.50;99.90;;;;;;5097366;28;20402;-77
2024/01/12 10:41:36;;;;;;;26.13;3.20;;;3.50;99.90;;;;;;5103506;28;20408;-77
2024/01/12 10:44:06;;;;;;;21.33;3.33;;;3.50;99.90;;;;;;5093761;28;20413;-77
2024/01/12 10:46:45;;;;;;;22.40;3.55;;;3.50;99.90;;;;;;5094702;28;20412;-77
2024/01/12 10:49:27;;;;;;;24.42;3.63;;;3.50;99.90;;;;;;5090756;28;20437;-77
2024/01/12 10:51:58;;;;;;;20.00;3.50;;;3.50;99.90;;;;;;5097765;28;20493;-77
2024/01/12 10:54:33;;;;;;;18.70;3.38;;;3.50;99.90;;;;;;5095071;28;20924;-77
2024/01/12 10:57:00;;;;;;;25.60;4.00;;;3.60;99.90;;;;;;5094069;28;20741;-77
2024/01/12 10:59:27;;;;;;;23.23;3.55;;;3.60;99.90;;;;;;5101259;28;20416;-77
2024/01/12 11:01:54;;;;;;;20.10;3.72;;;3.60;99.90;;;;;;5093930;28;20412;-77
2024/01/12 11:04:21;;;;;;;25.33;3.92;;;3.70;99.90;;;;;;5100281;28;20400;-77
2024/01/12 11:06:48;;;;;;;27.58;3.80;;;3.70;99.90;;;;;;5087064;28;20414;-77
2024/01/12 11:09:17;;;;;;;25.17;4.03;;;3.70;99.90;;;;;;5100038;28;20424;-77
2024/01/12 11:11:53;;;;;;;24.90;3.83;;;3.70;99.90;;;;;;5086861;28;20409;-77
2024/01/12 11:14:20;;;;;;;25.07;3.80;;;3.70;99.90;;;;;;5090114;28;20482;-77
2024/01/12 11:16:46;;;;;;;24.77;3.80;;;3.80;99.90;;;;;;5094414;28;20410;-77
2024/01/12 11:19:15;;;;;;;24.60;4.10;;;3.80;99.90;;;;;;5098328;28;20396;-77
2024/01/12 11:21:42;;;;;;;27.20;4.00;;;3.90;99.90;;;;;;5088895;28;20398;-77
2024/01/12 11:24:11;;;;;;;21.70;4.00;;;3.90;99.90;;;;;;5096602;28;20487;-77
2024/01/12 11:26:37;;;;;;;25.55;3.92;;;3.90;99.90;;;;;;5092815;28;20985;-77
2024/01/12 11:29:03;;;;;;;27.77;3.97;;;3.90;99.90;;;;;;5095651;28;20459;-77
2024/01/12 11:31:29;;;;;;;23.25;4.28;;;3.90;99.90;;;;;;5093947;28;20402;-77
2024/01/12 11:34:00;;;;;;;23.42;3.75;;;3.90;99.90;;;;;;5090700;28;21569;-77
2024/01/12 11:36:30;;;;;;;28.63;4.30;;;3.80;99.90;;;;;;5081220;28;20912;-77
2024/01/12 11:38:59;;;;;;;23.13;3.70;;;3.90;99.90;;;;;;5088433;28;20432;-77
2024/01/12 11:41:29;;;;;;;21.83;3.60;;;3.80;99.90;;;;;;5087973;28;20402;-77
2024/01/12 11:43:55;;;;;;;20.85;3.85;;;3.80;99.90;;;;;;5087161;28;20461;-77
2024/01/12 11:46:23;;;;;;;22.42;3.85;;;3.80;99.90;;;;;;5087892;28;20421;-77
2024/01/12 11:48:50;;;;;;;24.07;3.53;;;3.80;99.90;;;;;;5087607;28;20405;-77
2024/01/12 11:51:29;;;;;;;25.65;4.63;;;3.80;99.90;;;;;;5088096;28;20911;-77
2024/01/12 11:53:57;;;;;;;24.85;4.32;;;3.80;99.90;;;;;;5074334;28;20810;-77
2024/01/12 11:56:25;;;;;;;26.50;4.32;;;3.80;99.90;;;;;;5086856;28;20433;-77
2024/01/12 11:58:57;;;;;;;22.95;4.00;;;3.90;99.90;;;;;;5087420;28;20521;-77
2024/01/12 12:01:24;;;;;;;24.30;3.60;;;3.80;99.90;;;;;;5087617;28;20420;-77
2024/01/12 12:03:50;;;;;;;23.50;4.07;;;3.80;99.90;;;;;;5096060;28;20874;-77
2024/01/12 12:06:16;;;;;;;26.50;4.70;;;3.80;99.90;;;;;;5105095;28;20439;-77
2024/01/12 12:08:42;;;;;;;29.93;4.37;;;3.80;99.90;;;;;;5106915;28;20469;-77
2024/01/12 12:11:08;;;;;;;25.07;4.07;;;3.90;99.90;;;;;;5103563;28;21082;-77
2024/01/12 12:13:35;;;;;;;25.10;4.38;;;3.90;99.90;;;;;;5106083;28;20443;-77
2024/01/12 12:16:03;;;;;;;25.13;3.72;;;3.90;99.90;;;;;;5090753;28;20410;-76
2024/01/12 12:18:30;;;;;;;28.92;4.65;;;3.90;99.90;;;;;;5086002;28;20402;-77
2024/01/12 12:20:57;;;;;;;22.08;3.30;;;3.90;99.90;;;;;;5100627;28;20447;-77
2024/01/12 12:23:23;;;;;;;27.63;3.60;;;3.90;99.90;;;;;;5106185;28;20528;-77
2024/01/12 12:25:49;;;;;;;25.85;4.78;;;3.90;99.90;;;;;;5105182;28;21342;-77
2024/01/12 12:28:15;;;;;;;25.85;3.63;;;3.90;99.90;;;;;;5108386;28;20453;-77
2024/01/12 12:30:41;;;;;;;24.52;4.05;;;3.90;99.90;;;;;;5108983;28;20437;-77
2024/01/12 12:33:10;;;;;;;33.37;4.90;;;4.00;99.90;;;;;;5108249;28;20433;-77
2024/01/12 12:35:36;;;;;;;26.75;4.55;;;4.00;99.90;;;;;;5092568;28;20911;-77
2024/01/12 12:38:02;;;;;;;34.73;5.40;;;3.90;99.90;;;;;;5097333;28;20404;-77